Nearby METAR Reports

 

EGTE - Exeter Airport, United Kingdom
Distance from station: S 19km
Updated: 20/01/2018 06:50
Light drizzle, Mostly cloudy
Light drizzle, Mostly cloudy
 Wind from SE
Wind: SE 9 km/h
Temperature: 6°C
Wind Chill: 4°C
Dew Point: 6°C
Humidity: 100%
Barometer: 998 hPa
Summary: Light Drizzle
Clouds: Mostly cloudy
Visibility: 10 km
Cloud details: Mostly cloudy 183 m
2018/01/20 06:50 EGTE 200650Z 14005KT 110V170 9999 -DZ BKN006 06/06 Q0998
EGDY - Yeovilton (navy), United Kingdom
Distance from station: ENE 55km
Updated: 20/01/2018 05:50
NOT Current
Light rain, Mostly cloudy
Light rain, Mostly cloudy
 Wind from ESE
Wind: ESE 11 km/h
Temperature: 5°C
Wind Chill: 2°C
Dew Point: 5°C
Humidity: 100%
Barometer: 1000 hPa
Summary: Light rain
Clouds: Mostly cloudy
Visibility: 6 km
Cloud details: Few Clouds 762 m
Mostly cloudy 1158 m
2018/01/20 05:50 EGDY 200550Z AUTO 11006KT 6000 -RA FEW025/// BKN038/// 05/05 Q1000
 
EGFF - Cardiff-Wales Ar, United Kingdom
Distance from station: N 56km
Updated: 20/01/2018 06:50
Rain drizzle, Overcast
Rain drizzle, Overcast
 Wind from E
Wind: E 11 km/h
Temperature: 5°C
Wind Chill: 2°C
Dew Point: 4°C
Humidity: 93%
Barometer: 999 hPa
Summary: Rain Drizzle
Clouds: Overcast
Visibility: 4 km
Cloud details: Overcast 61 m
2018/01/20 06:50 EGFF 200650Z AUTO 10006KT 3900 RADZ OVC002 05/04 Q0999
EGDX - St Athan Raf, United Kingdom
Distance from station: N 58km
Updated: 20/01/2018 05:50
NOT Current
Light drizzle, Mostly cloudy
Light drizzle, Mostly cloudy
 Wind from E
Wind: E 11 km/h
Temperature: 4°C
Wind Chill: 1°C
Dew Point: 4°C
Humidity: 100%
Barometer: 999 hPa
Summary: Light Drizzle
Clouds: Mostly cloudy
Visibility: 3 km
Cloud details: Few Clouds 91 m
Mostly cloudy 305 m
2018/01/20 05:50 EGDX 200550Z AUTO 10006KT 3200 -DZ FEW003/// BKN010/// 04/04 Q0999
 
EGGD - Bristol/Lulsgate, United Kingdom
Distance from station: NE 71km
Updated: 20/01/2018 06:50
Mist, Mostly cloudy
Mist, Mostly cloudy
 Wind from E
Wind: E 9 km/h
Temperature: 3°C
Wind Chill: 0°C
Dew Point: 3°C
Humidity: 100%
Barometer: 999 hPa
Summary: Mist
Clouds: Mostly cloudy
Visibility: 3 km
Cloud details: Few Clouds 183 m
Partly cloudy 335 m
Mostly cloudy 671 m
2018/01/20 06:50 EGGD 200650Z AUTO 08005KT 2600 BR FEW006 SCT011 BKN022 03/03 Q0999